createdAt,value
2022-09-23T00:01:02.991Z,59.31
2022-09-23T00:03:30.862Z,59.50
2022-09-23T00:06:06.664Z,58.73
2022-09-23T00:08:33.931Z,58.78
2022-09-23T00:11:10.813Z,58.63
2022-09-23T00:13:38.884Z,59.52
2022-09-23T00:16:10.729Z,60.11
2022-09-23T00:18:37.506Z,59.86
2022-09-23T00:21:05.341Z,60.18
2022-09-23T00:23:32.342Z,60.38
2022-09-23T00:26:00.624Z,60.83
2022-09-23T00:28:27.154Z,60.92
2022-09-23T00:30:53.577Z,60.49
2022-09-23T00:33:19.991Z,60.15
2022-09-23T00:35:47.271Z,60.36
2022-09-23T00:38:14.274Z,61.22
2022-09-23T00:40:46.065Z,61.36
2022-09-23T00:43:14.726Z,61.64
2022-09-23T00:45:45.081Z,61.90
2022-09-23T00:48:17.080Z,62.30
2022-09-23T00:50:54.077Z,62.43
2022-09-23T00:53:23.936Z,62.44
2022-09-23T00:55:57.151Z,62.79
2022-09-23T00:58:31.107Z,62.88
2022-09-23T01:01:00.318Z,62.48
2022-09-23T01:03:27.112Z,62.98
2022-09-23T01:05:53.728Z,62.95
2022-09-23T01:08:22.092Z,62.86
2022-09-23T01:11:24.237Z,63.10
2022-09-23T01:14:16.134Z,62.76
2022-09-23T01:17:03.934Z,62.09
2022-09-23T01:19:36.321Z,62.16
2022-09-23T01:22:19.434Z,62.29
2022-09-23T01:25:34.127Z,62.30
2022-09-23T01:28:29.044Z,61.74
2022-09-23T01:31:20.625Z,61.38
2022-09-23T01:33:58.728Z,60.78
2022-09-23T01:36:39.307Z,60.72
2022-09-23T01:39:14.694Z,60.84
2022-09-23T01:41:50.342Z,60.36
2022-09-23T01:44:20.171Z,60.38
2022-09-23T01:46:59.742Z,60.66
2022-09-23T01:49:35.137Z,61.17
2022-09-23T01:52:16.088Z,60.98
2022-09-23T01:54:50.592Z,61.48
2022-09-23T01:57:21.468Z,60.76
2022-09-23T01:59:52.610Z,61.08
2022-09-23T02:02:28.189Z,60.78
2022-09-23T02:05:30.223Z,60.50
2022-09-23T02:08:06.235Z,60.25
2022-09-23T02:10:37.334Z,60.89
2022-09-23T02:13:13.870Z,61.57
2022-09-23T02:15:47.475Z,61.20
2022-09-23T02:18:29.166Z,61.49
2022-09-23T02:21:02.773Z,61.90
2022-09-23T02:23:39.979Z,62.83
2022-09-23T02:26:19.294Z,61.56
2022-09-23T02:29:04.445Z,61.14
2022-09-23T02:31:51.925Z,61.51
2022-09-23T02:34:37.215Z,62.42
2022-09-23T02:37:10.595Z,61.53
2022-09-23T02:40:05.277Z,61.40
2022-09-23T02:42:48.909Z,62.46
2022-09-23T02:45:15.635Z,62.23
2022-09-23T02:47:46.637Z,62.38
2022-09-23T02:50:13.732Z,62.97
2022-09-23T02:52:40.568Z,62.93
2022-09-23T02:55:11.882Z,62.50
2022-09-23T02:57:38.663Z,61.82
2022-09-23T03:00:05.732Z,61.76
2022-09-23T03:03:12.463Z,61.93
2022-09-23T03:05:50.041Z,60.98
2022-09-23T03:08:38.677Z,61.68
2022-09-23T03:11:13.388Z,61.80
2022-09-23T03:13:53.824Z,61.95
2022-09-23T03:16:43.758Z,62.76
2022-09-23T03:19:25.378Z,63.08
2022-09-23T03:22:29.757Z,62.42
2022-09-23T03:25:01.562Z,62.60
2022-09-23T03:27:32.321Z,62.80
2022-09-23T03:29:59.951Z,62.45
2022-09-23T03:32:28.910Z,62.87
2022-09-23T03:34:58.478Z,61.88
2022-09-23T03:37:32.275Z,61.61
2022-09-23T03:40:28.549Z,62.83
2022-09-23T03:42:57.360Z,63.09
2022-09-23T03:45:31.617Z,61.70
2022-09-23T03:47:58.171Z,61.88
2022-09-23T03:50:24.874Z,62.10
2022-09-23T03:52:51.306Z,61.75
2022-09-23T03:55:19.126Z,62.22
2022-09-23T03:57:45.718Z,61.41
2022-09-23T04:00:13.734Z,61.35
2022-09-23T04:02:40.633Z,61.10
2022-09-23T04:05:08.645Z,61.94
2022-09-23T04:07:34.970Z,62.36
2022-09-23T04:10:01.284Z,62.16
2022-09-23T04:12:27.662Z,61.66
2022-09-23T04:14:53.977Z,61.61
2022-09-23T04:17:20.291Z,60.26
2022-09-23T04:19:46.772Z,60.31
2022-09-23T04:22:13.337Z,61.75
2022-09-23T04:24:39.696Z,61.60
2022-09-23T04:27:06.295Z,61.52
2022-09-23T04:29:32.638Z,61.60
2022-09-23T04:31:59.122Z,62.58
2022-09-23T04:34:25.490Z,62.99
2022-09-23T04:36:51.910Z,63.07
2022-09-23T04:39:18.368Z,63.25
2022-09-23T04:41:45.287Z,62.35
2022-09-23T04:44:12.748Z,63.18
2022-09-23T04:46:43.801Z,63.16
2022-09-23T04:49:10.649Z,62.93
2022-09-23T04:51:37.039Z,63.71
2022-09-23T04:54:03.454Z,62.99
2022-09-23T04:56:33.681Z,63.63
2022-09-23T04:59:01.554Z,62.91
2022-09-23T05:01:34.442Z,63.53
2022-09-23T05:04:05.139Z,63.27
2022-09-23T05:06:34.975Z,63.50
2022-09-23T05:09:02.529Z,63.66
2022-09-23T05:11:31.232Z,64.15
2022-09-23T05:13:58.174Z,64.11
2022-09-23T05:16:25.492Z,64.93
2022-09-23T05:18:53.173Z,64.77
2022-09-23T05:21:21.569Z,64.49
2022-09-23T05:23:56.525Z,64.57
2022-09-23T05:26:25.382Z,64.54
2022-09-23T05:28:52.731Z,64.01
2022-09-23T05:31:21.333Z,64.32
2022-09-23T05:33:54.487Z,64.79
2022-09-23T05:36:22.975Z,65.27
2022-09-23T05:38:51.105Z,65.17
2022-09-23T05:41:19.404Z,65.44
2022-09-23T05:43:47.117Z,65.78
2022-09-23T05:46:15.910Z,65.98
2022-09-23T05:48:43.620Z,66.00
2022-09-23T05:51:14.519Z,66.32
2022-09-23T05:53:42.609Z,65.92
2022-09-23T05:56:08.927Z,66.01
2022-09-23T05:58:35.429Z,65.36
2022-09-23T06:01:09.351Z,64.53
2022-09-23T06:03:35.737Z,63.83
2022-09-23T06:06:02.051Z,63.89
2022-09-23T06:08:28.394Z,63.55
2022-09-23T06:10:54.822Z,63.19
2022-09-23T06:13:21.454Z,63.79
2022-09-23T06:15:47.866Z,64.42
2022-09-23T06:18:14.357Z,65.32
2022-09-23T06:20:40.719Z,64.89
2022-09-23T06:23:10.634Z,65.78
2022-09-23T06:25:41.029Z,65.82
2022-09-23T06:28:11.436Z,65.28
2022-09-23T06:30:39.539Z,65.64
2022-09-23T06:33:05.931Z,65.02
2022-09-23T06:35:35.123Z,64.41
2022-09-23T06:38:05.322Z,63.25
2022-09-23T06:40:31.908Z,62.79
2022-09-23T06:43:00.364Z,62.48
2022-09-23T06:45:27.641Z,62.20
2022-09-23T06:47:58.341Z,62.57
2022-09-23T06:50:27.693Z,61.97
2022-09-23T06:52:56.043Z,62.17
2022-09-23T06:55:27.885Z,62.06
2022-09-23T06:57:57.850Z,61.43
2022-09-23T07:00:25.242Z,60.50
2022-09-23T07:02:52.012Z,60.28
2022-09-23T07:05:18.394Z,61.67
2022-09-23T07:07:45.073Z,61.76
2022-09-23T07:10:12.137Z,61.63
2022-09-23T07:12:38.980Z,61.81
2022-09-23T07:15:05.961Z,61.41
2022-09-23T07:17:32.485Z,60.52
2022-09-23T07:19:59.222Z,60.52
2022-09-23T07:22:26.371Z,61.32
2022-09-23T07:24:56.590Z,62.32
2022-09-23T07:27:25.282Z,61.51
2022-09-23T07:29:52.080Z,61.32
2022-09-23T07:32:20.293Z,61.56
2022-09-23T07:34:47.199Z,61.88
2022-09-23T07:37:17.690Z,61.49
2022-09-23T07:39:45.032Z,61.74
2022-09-23T07:42:14.182Z,60.78
2022-09-23T07:44:43.913Z,60.33
2022-09-23T07:47:10.257Z,60.84
2022-09-23T07:49:36.981Z,60.81
2022-09-23T07:52:04.696Z,61.34
2022-09-23T07:54:31.779Z,61.72
2022-09-23T07:56:59.230Z,61.16
2022-09-23T07:59:26.942Z,61.32
2022-09-23T08:01:54.679Z,61.25
2022-09-23T08:04:22.231Z,60.73
2022-09-23T08:06:51.526Z,60.66
2022-09-23T08:09:19.910Z,60.48
2022-09-23T08:11:46.472Z,60.58
2022-09-23T08:14:14.410Z,60.43
2022-09-23T08:16:41.799Z,60.51
2022-09-23T08:19:08.668Z,60.84
2022-09-23T08:21:35.162Z,60.86
2022-09-23T08:24:01.667Z,61.13
2022-09-23T08:26:28.707Z,61.10
2022-09-23T08:28:56.367Z,61.41
2022-09-23T08:31:23.590Z,61.40
2022-09-23T08:33:57.765Z,61.40
2022-09-23T08:36:25.440Z,61.75
2022-09-23T08:38:52.274Z,61.43
2022-09-23T08:41:29.261Z,60.59
2022-09-23T08:44:03.813Z,60.13
2022-09-23T08:46:40.526Z,60.10
2022-09-23T08:49:09.017Z,60.27
2022-09-23T08:51:46.014Z,61.00
2022-09-23T08:54:13.704Z,61.90
2022-09-23T08:56:44.163Z,61.76
2022-09-23T08:59:40.358Z,60.40
2022-09-23T09:02:15.387Z,61.38
2022-09-23T09:04:44.541Z,61.57
2022-09-23T09:07:35.676Z,58.50
2022-09-23T09:10:19.280Z,57.64
2022-09-23T09:12:53.934Z,58.59
2022-09-23T09:15:24.657Z,59.58
2022-09-23T09:18:16.319Z,57.85
2022-09-23T09:20:48.933Z,57.92
2022-09-23T09:23:47.737Z,58.83
2022-09-23T09:26:22.198Z,57.60
2022-09-23T09:29:11.440Z,56.63
2022-09-23T09:31:49.022Z,52.78
2022-09-23T09:34:24.419Z,53.44
2022-09-23T09:37:07.264Z,52.74
2022-09-23T09:39:35.277Z,52.12
2022-09-23T09:42:02.640Z,53.46
2022-09-23T09:45:02.589Z,52.06
2022-09-23T09:47:49.765Z,52.86
2022-09-23T09:50:21.956Z,49.63
2022-09-23T09:52:48.889Z,48.51
2022-09-23T09:55:28.926Z,48.63
2022-09-23T09:58:01.547Z,49.36
2022-09-23T10:00:27.877Z,48.99
2022-09-23T10:03:01.758Z,48.73
2022-09-23T10:05:43.448Z,48.75
2022-09-23T10:08:34.847Z,49.85
2022-09-23T10:11:15.017Z,49.16
2022-09-23T10:14:02.283Z,49.88
2022-09-23T10:16:34.235Z,50.75
2022-09-23T10:19:11.256Z,49.91
2022-09-23T10:21:38.361Z,50.62
2022-09-23T10:24:06.943Z,50.61
2022-09-23T10:26:41.337Z,49.58
2022-09-23T10:29:23.112Z,49.93
2022-09-23T10:31:53.738Z,49.54
2022-09-23T10:34:27.319Z,49.45
2022-09-23T10:37:14.383Z,50.18
2022-09-23T10:40:16.876Z,49.11
2022-09-23T10:43:33.392Z,48.28
2022-09-23T10:46:23.789Z,48.79
2022-09-23T10:49:27.585Z,47.27
2022-09-23T10:52:15.965Z,46.76
2022-09-23T10:55:19.840Z,46.34
2022-09-23T10:57:46.281Z,46.15
2022-09-23T11:01:00.976Z,47.26
2022-09-23T11:03:50.546Z,45.62
2022-09-23T11:06:40.245Z,44.40
2022-09-23T11:09:28.391Z,42.74
2022-09-23T11:12:08.231Z,41.86
2022-09-23T11:15:10.858Z,43.64
2022-09-23T11:18:19.526Z,42.99
2022-09-23T11:21:07.118Z,42.15
2022-09-23T11:23:55.419Z,42.46
2022-09-23T11:26:41.795Z,41.88
2022-09-23T11:29:26.884Z,42.56
2022-09-23T11:32:02.308Z,43.40
2022-09-23T11:34:54.940Z,41.43
2022-09-23T11:37:27.598Z,40.83
2022-09-23T11:40:18.938Z,41.10
2022-09-23T11:43:07.143Z,41.96
2022-09-23T11:45:39.705Z,41.62
2022-09-23T11:48:13.786Z,42.86
2022-09-23T11:50:49.882Z,42.81
2022-09-23T11:53:24.397Z,40.97
2022-09-23T11:56:23.991Z,40.56
2022-09-23T11:59:31.582Z,40.69
2022-09-23T12:02:19.645Z,42.40
2022-09-23T12:05:12.320Z,41.98
2022-09-23T12:07:48.612Z,42.20
2022-09-23T12:10:15.881Z,40.47
2022-09-23T12:12:55.897Z,41.24
2022-09-23T12:15:22.318Z,41.11
2022-09-23T12:18:01.250Z,41.53
2022-09-23T12:20:42.747Z,40.36
2022-09-23T12:23:27.357Z,41.36
2022-09-23T12:26:01.714Z,39.52
2022-09-23T12:28:41.220Z,39.19
2022-09-23T12:31:14.852Z,39.21
2022-09-23T12:33:50.016Z,38.89
2022-09-23T12:36:24.057Z,39.89
2022-09-23T12:38:54.397Z,39.73
2022-09-23T12:41:26.835Z,40.30
2022-09-23T12:43:57.410Z,40.31
2022-09-23T12:46:26.684Z,40.96
2022-09-23T12:48:57.643Z,41.28
2022-09-23T12:51:26.183Z,39.95
2022-09-23T12:54:15.313Z,40.48
2022-09-23T12:56:43.218Z,41.39
2022-09-23T12:59:12.145Z,40.93
2022-09-23T13:01:39.137Z,40.10
2022-09-23T13:04:31.776Z,40.10
2022-09-23T13:07:07.537Z,40.86
2022-09-23T13:09:42.478Z,40.21
2022-09-23T13:12:19.453Z,40.95
2022-09-23T13:14:49.974Z,40.65
2022-09-23T13:17:32.080Z,40.98
2022-09-23T13:20:01.609Z,42.17
2022-09-23T13:22:48.678Z,41.43
2022-09-23T13:25:26.670Z,42.35
2022-09-23T13:27:55.640Z,41.96
2022-09-23T13:30:26.474Z,41.28
2022-09-23T13:33:12.804Z,41.76
2022-09-23T13:35:44.238Z,41.59
2022-09-23T13:38:26.014Z,42.15
2022-09-23T13:40:58.167Z,42.17
2022-09-23T13:43:34.717Z,43.20
2022-09-23T13:46:05.239Z,43.53
2022-09-23T13:48:32.193Z,42.20
2022-09-23T13:50:59.778Z,41.53
2022-09-23T13:53:30.031Z,41.38
2022-09-23T13:56:07.250Z,41.33
2022-09-23T13:58:35.487Z,41.83
2022-09-23T14:01:02.275Z,41.33
2022-09-23T14:03:35.867Z,40.48
2022-09-23T14:06:09.455Z,42.39
2022-09-23T14:08:40.193Z,42.81
2022-09-23T14:11:06.806Z,41.72
2022-09-23T14:13:41.375Z,42.46
2022-09-23T14:16:11.437Z,42.11
2022-09-23T14:18:41.292Z,42.66
2022-09-23T14:21:25.776Z,42.74
2022-09-23T14:23:52.082Z,43.44
2022-09-23T14:26:19.121Z,43.25
2022-09-23T14:28:47.544Z,42.39
2022-09-23T14:31:13.990Z,42.85
2022-09-23T14:33:42.271Z,43.06
2022-09-23T14:36:39.168Z,43.60
2022-09-23T14:39:09.393Z,43.64
2022-09-23T14:41:43.043Z,43.38
2022-09-23T14:44:22.929Z,42.91
2022-09-23T14:46:56.775Z,43.43
2022-09-23T14:49:24.165Z,43.76
2022-09-23T14:51:54.651Z,43.49
2022-09-23T14:54:46.063Z,43.75
2022-09-23T14:57:31.716Z,44.92
2022-09-23T15:00:14.154Z,44.41
2022-09-23T15:02:44.222Z,45.02
2022-09-23T15:05:22.192Z,44.23
2022-09-23T15:07:55.209Z,44.21
2022-09-23T15:10:30.111Z,45.05
2022-09-23T15:13:08.441Z,45.32
2022-09-23T15:15:35.630Z,45.13
2022-09-23T15:18:07.933Z,45.41
2022-09-23T15:20:35.286Z,45.54
2022-09-23T15:23:01.715Z,45.16
2022-09-23T15:25:40.609Z,45.06
2022-09-23T15:28:09.925Z,44.48
2022-09-23T15:30:38.076Z,45.24
2022-09-23T15:33:05.526Z,45.71
2022-09-23T15:35:32.514Z,45.58
2022-09-23T15:38:02.037Z,45.92
2022-09-23T15:40:30.838Z,44.86
2022-09-23T15:42:59.376Z,45.50
2022-09-23T15:45:33.258Z,45.95
2022-09-23T15:48:07.241Z,46.60
2022-09-23T15:50:37.071Z,47.06
2022-09-23T15:53:06.209Z,47.45
2022-09-23T15:55:33.607Z,47.31
2022-09-23T15:58:00.461Z,47.45
2022-09-23T16:00:27.093Z,48.17
2022-09-23T16:02:54.086Z,48.51
2022-09-23T16:05:26.493Z,48.30
2022-09-23T16:07:52.999Z,48.50
2022-09-23T16:10:21.458Z,48.85
2022-09-23T16:12:48.870Z,48.66
2022-09-23T16:15:17.969Z,48.78
2022-09-23T16:17:45.193Z,48.67
2022-09-23T16:20:16.093Z,49.05
2022-09-23T16:22:42.458Z,49.10
2022-09-23T16:25:11.971Z,49.54
2022-09-23T16:27:40.008Z,49.99
2022-09-23T16:30:07.243Z,50.51
2022-09-23T16:32:33.544Z,50.81
2022-09-23T16:34:59.843Z,50.57
2022-09-23T16:37:26.189Z,50.47
2022-09-23T16:39:52.556Z,51.21
2022-09-23T16:42:19.101Z,51.11
2022-09-23T16:44:45.473Z,51.21
2022-09-23T16:47:11.778Z,51.81
2022-09-23T16:49:38.154Z,51.30
2022-09-23T16:52:04.499Z,51.89
2022-09-23T16:54:31.843Z,52.03
2022-09-23T16:56:58.998Z,51.66
2022-09-23T16:59:45.478Z,52.54
2022-09-23T17:02:30.406Z,54.33
2022-09-23T17:04:57.195Z,54.39
2022-09-23T17:07:23.539Z,55.24
2022-09-23T17:09:50.610Z,55.18
2022-09-23T17:12:24.582Z,55.13
2022-09-23T17:14:52.394Z,54.76
2022-09-23T17:17:18.919Z,55.30
2022-09-23T17:19:45.219Z,55.35
2022-09-23T17:22:11.549Z,55.37
2022-09-23T17:24:37.909Z,56.19
2022-09-23T17:27:04.235Z,56.35
2022-09-23T17:29:30.644Z,56.40
2022-09-23T17:31:57.061Z,57.31
2022-09-23T17:34:24.011Z,56.92
2022-09-23T17:36:50.727Z,56.95
2022-09-23T17:39:17.275Z,57.70
2022-09-23T17:41:45.275Z,57.54
2022-09-23T17:44:11.720Z,58.31
2022-09-23T17:46:38.139Z,58.58
2022-09-23T17:49:05.324Z,58.92
2022-09-23T17:51:31.632Z,58.74
2022-09-23T17:53:57.982Z,59.83
2022-09-23T17:56:26.371Z,58.35
2022-09-23T17:58:53.685Z,58.42
2022-09-23T18:01:25.887Z,59.08
2022-09-23T18:03:57.110Z,59.13
2022-09-23T18:06:25.620Z,59.50
2022-09-23T18:08:52.772Z,59.78
2022-09-23T18:11:22.382Z,60.14
2022-09-23T18:13:56.818Z,60.08
2022-09-23T18:16:24.566Z,60.41
2022-09-23T18:18:56.096Z,60.52
2022-09-23T18:21:23.994Z,60.69
2022-09-23T18:23:50.533Z,60.92
2022-09-23T18:26:19.259Z,61.69
2022-09-23T18:28:45.947Z,61.50
2022-09-23T18:31:12.545Z,61.84
2022-09-23T18:33:39.156Z,61.38
2022-09-23T18:36:05.946Z,61.16
2022-09-23T18:38:32.781Z,61.17
2022-09-23T18:41:00.258Z,61.09
2022-09-23T18:43:37.408Z,61.16
2022-09-23T18:46:09.926Z,60.92
2022-09-23T18:48:54.981Z,60.56
2022-09-23T18:51:25.336Z,60.75
2022-09-23T18:53:57.399Z,61.21
2022-09-23T18:56:26.546Z,60.45
2022-09-23T18:58:55.025Z,61.51
2022-09-23T19:01:23.100Z,61.45
2022-09-23T19:03:55.097Z,61.72
2022-09-23T19:06:21.959Z,62.06
2022-09-23T19:08:53.032Z,61.93
2022-09-23T19:11:20.497Z,61.79
2022-09-23T19:13:47.247Z,61.51
2022-09-23T19:16:15.861Z,61.40
2022-09-23T19:18:45.576Z,61.94
2022-09-23T19:21:13.601Z,61.80
2022-09-23T19:23:44.420Z,62.20
2022-09-23T19:26:12.299Z,62.38
2022-09-23T19:28:39.314Z,62.44
2022-09-23T19:31:16.643Z,62.32
2022-09-23T19:33:46.266Z,63.15
2022-09-23T19:36:16.164Z,63.35
2022-09-23T19:38:42.483Z,63.27
2022-09-23T19:41:09.054Z,62.03
2022-09-23T19:43:38.254Z,62.90
2022-09-23T19:46:06.669Z,62.36
2022-09-23T19:48:34.990Z,62.39
2022-09-23T19:51:02.528Z,62.73
2022-09-23T19:53:28.838Z,62.74
2022-09-23T19:55:56.067Z,63.50
2022-09-23T19:58:23.100Z,63.53
2022-09-23T20:00:49.502Z,64.91
2022-09-23T20:03:17.592Z,64.73
2022-09-23T20:05:44.042Z,64.23
2022-09-23T20:08:10.660Z,63.69
2022-09-23T20:10:39.511Z,63.56
2022-09-23T20:13:05.908Z,64.33
2022-09-23T20:15:32.262Z,64.43
2022-09-23T20:17:58.596Z,64.66
2022-09-23T20:20:24.930Z,64.85
2022-09-23T20:22:52.709Z,64.84
2022-09-23T20:25:19.070Z,64.98
2022-09-23T20:27:51.138Z,65.12
2022-09-23T20:30:17.829Z,65.00
2022-09-23T20:32:45.002Z,65.00
2022-09-23T20:35:11.387Z,65.09
2022-09-23T20:37:37.746Z,65.41
2022-09-23T20:40:04.686Z,65.26
2022-09-23T20:42:31.868Z,65.03
2022-09-23T20:44:58.416Z,65.26
2022-09-23T20:47:24.873Z,65.32
2022-09-23T20:49:51.330Z,65.68
2022-09-23T20:52:18.029Z,65.68
2022-09-23T20:54:44.440Z,64.88
2022-09-23T20:57:14.026Z,65.10
2022-09-23T20:59:40.675Z,64.63
2022-09-23T21:02:07.842Z,64.41
2022-09-23T21:04:34.891Z,64.97
2022-09-23T21:07:01.241Z,65.10
2022-09-23T21:09:30.903Z,64.83
2022-09-23T21:11:57.883Z,64.74
2022-09-23T21:14:24.332Z,64.87
2022-09-23T21:16:51.410Z,64.48
2022-09-23T21:19:19.227Z,64.24
2022-09-23T21:21:45.888Z,63.85
2022-09-23T21:24:40.062Z,63.58
2022-09-23T21:26:59.112Z,63.64
2022-09-23T21:29:25.435Z,63.90
2022-09-23T21:31:51.777Z,63.98
2022-09-23T21:34:18.252Z,64.31
2022-09-23T21:36:45.170Z,64.32
2022-09-23T21:39:12.143Z,64.79
2022-09-23T21:41:39.062Z,64.74
2022-09-23T21:44:06.642Z,65.18
2022-09-23T21:46:33.884Z,65.33
2022-09-23T21:49:03.794Z,65.22
2022-09-23T21:51:35.121Z,65.38
2022-09-23T21:54:01.582Z,65.68
2022-09-23T21:56:35.038Z,65.85
2022-09-23T21:59:01.712Z,65.79
2022-09-23T22:01:30.684Z,66.50
2022-09-23T22:04:05.022Z,66.60
2022-09-23T22:06:32.018Z,66.44
2022-09-23T22:09:01.252Z,66.74
2022-09-23T22:11:51.792Z,66.77
2022-09-23T22:14:20.652Z,67.07
2022-09-23T22:16:47.037Z,67.11
2022-09-23T22:19:14.970Z,67.38
2022-09-23T22:21:42.893Z,67.90
2022-09-23T22:24:10.541Z,67.98
2022-09-23T22:26:42.552Z,67.68
2022-09-23T22:29:32.712Z,67.34
2022-09-23T22:32:19.515Z,68.16
2022-09-23T22:34:50.448Z,67.33
2022-09-23T22:37:21.153Z,68.38
2022-09-23T22:39:47.501Z,68.05
2022-09-23T22:42:14.246Z,67.59
2022-09-23T22:44:40.649Z,66.71
2022-09-23T22:47:07.999Z,66.61
2022-09-23T22:49:34.469Z,66.75
2022-09-23T22:52:02.281Z,67.19
2022-09-23T22:54:33.733Z,67.62
2022-09-23T22:57:04.019Z,67.17
2022-09-23T22:59:30.435Z,67.78
2022-09-23T23:01:57.401Z,68.07
2022-09-23T23:04:23.770Z,68.19
2022-09-23T23:06:50.069Z,68.17
2022-09-23T23:09:18.400Z,68.87
2022-09-23T23:11:45.426Z,68.84
2022-09-23T23:14:13.614Z,68.67
2022-09-23T23:16:40.607Z,68.67
2022-09-23T23:19:09.576Z,68.34
2022-09-23T23:21:36.809Z,68.72
2022-09-23T23:24:04.840Z,68.21
2022-09-23T23:26:33.315Z,68.36
2022-09-23T23:29:01.392Z,68.59
2022-09-23T23:31:29.156Z,68.51
2022-09-23T23:33:55.596Z,68.76
2022-09-23T23:36:23.380Z,68.69
2022-09-23T23:38:51.641Z,69.71
2022-09-23T23:41:21.494Z,69.55
2022-09-23T23:43:54.674Z,69.54
2022-09-23T23:46:21.350Z,69.20
2022-09-23T23:48:48.337Z,69.14
2022-09-23T23:51:15.646Z,69.82
2022-09-23T23:53:42.845Z,69.12
2022-09-23T23:56:12.297Z,69.65
2022-09-23T23:58:39.427Z,69.88
